Time;durP1;ratioP1;P1;durP2;ratioP2;P2;SDS_P1;SDS_P2;PMS_P1;PMS_P2;Temp;Humidity;BMP_temperature;BMP_pressure;BME280_temperature;BME280_humidity;BME280_pressure;Samples;Min_cycle;Max_cycle;Signal;HPM_P1;HPM_P2
2023/09/27 00:00:06;;;;;;;16.42;14.75;;;14.40;99.90;;;;;;5058542;28;20045;-58
2023/09/27 00:02:31;;;;;;;16.25;14.60;;;14.40;99.90;;;;;;5051949;28;20044;-58
2023/09/27 00:04:57;;;;;;;17.70;15.88;;;14.40;99.90;;;;;;5053892;28;20033;-59
2023/09/27 00:07:23;;;;;;;16.77;15.20;;;14.40;99.90;;;;;;5056182;28;20106;-57
2023/09/27 00:09:48;;;;;;;18.92;16.42;;;14.40;99.90;;;;;;5053511;28;20077;-58
2023/09/27 00:12:15;;;;;;;18.05;16.40;;;14.40;99.90;;;;;;5054416;28;20032;-56
2023/09/27 00:14:41;;;;;;;17.00;15.30;;;14.40;99.90;;;;;;5055453;28;20049;-59
2023/09/27 00:17:06;;;;;;;16.38;14.05;;;14.40;99.90;;;;;;5055166;28;20503;-57
2023/09/27 00:19:32;;;;;;;17.50;15.80;;;14.40;99.90;;;;;;5056819;28;20087;-56
2023/09/27 00:21:57;;;;;;;16.98;14.32;;;14.30;99.90;;;;;;5055976;28;20095;-58
2023/09/27 00:24:23;;;;;;;18.08;16.20;;;14.30;99.90;;;;;;5057468;28;20039;-58
2023/09/27 00:26:49;;;;;;;23.13;20.65;;;14.30;99.90;;;;;;5056693;28;20046;-56
2023/09/27 00:29:14;;;;;;;20.73;18.70;;;14.20;99.90;;;;;;5055585;28;20432;-59
2023/09/27 00:31:40;;;;;;;21.90;19.73;;;14.30;99.90;;;;;;5060039;28;20037;-58
2023/09/27 00:34:06;;;;;;;23.05;19.88;;;14.20;99.90;;;;;;5055971;28;20529;-57
2023/09/27 00:36:31;;;;;;;25.52;21.10;;;14.30;99.90;;;;;;5060988;28;20040;-57
2023/09/27 00:38:57;;;;;;;23.02;20.63;;;14.30;99.90;;;;;;5055640;28;20056;-59
2023/09/27 00:41:22;;;;;;;22.52;20.10;;;14.30;99.90;;;;;;5050999;28;20036;-59
2023/09/27 00:43:48;;;;;;;23.67;20.67;;;14.30;99.90;;;;;;5046674;28;20065;-57
2023/09/27 00:46:18;;;;;;;26.58;20.70;;;14.30;99.90;;;;;;5054792;28;20357;-57
2023/09/27 00:48:44;;;;;;;24.88;21.60;;;14.20;99.90;;;;;;5050772;28;20036;-59
2023/09/27 00:51:10;;;;;;;24.75;21.83;;;14.20;99.90;;;;;;5053065;28;20040;-57
2023/09/27 00:53:37;;;;;;;23.42;20.77;;;14.20;99.90;;;;;;5054628;28;20041;-59
2023/09/27 00:56:04;;;;;;;21.30;19.20;;;14.20;99.90;;;;;;5052203;28;20053;-59
2023/09/27 00:58:34;;;;;;;25.67;21.55;;;14.20;99.90;;;;;;5055330;28;20042;-58
2023/09/27 01:01:00;;;;;;;23.05;20.67;;;14.20;99.90;;;;;;5054582;28;20112;-56
2023/09/27 01:03:26;;;;;;;25.30;22.70;;;14.20;99.90;;;;;;5055722;28;20059;-58
2023/09/27 01:05:52;;;;;;;27.55;23.48;;;14.20;99.90;;;;;;5055053;28;20028;-58
2023/09/27 01:08:18;;;;;;;29.52;23.00;;;14.20;99.90;;;;;;5058987;28;20041;-59
2023/09/27 01:10:45;;;;;;;23.58;21.17;;;14.20;99.90;;;;;;5059831;28;20029;-59
2023/09/27 01:13:11;;;;;;;27.13;23.25;;;14.20;99.90;;;;;;5055524;28;20127;-58
2023/09/27 01:15:37;;;;;;;27.98;21.45;;;14.20;99.90;;;;;;5056549;28;20155;-57
2023/09/27 01:18:03;;;;;;;20.08;17.83;;;14.20;99.90;;;;;;5058521;28;20040;-57
2023/09/27 01:20:30;;;;;;;22.60;18.58;;;14.10;99.90;;;;;;5054211;28;20399;-59
2023/09/27 01:23:02;;;;;;;23.92;19.13;;;14.00;99.90;;;;;;5052086;28;20120;-57
2023/09/27 01:25:32;;;;;;;26.05;23.35;;;14.00;99.90;;;;;;5055882;28;20112;-58
2023/09/27 01:28:03;;;;;;;25.27;21.60;;;13.90;99.90;;;;;;5051831;28;20454;-57
2023/09/27 01:30:32;;;;;;;29.15;25.77;;;13.90;99.90;;;;;;5052307;28;20469;-58
2023/09/27 01:33:18;;;;;;;32.47;26.33;;;13.90;99.90;;;;;;5047998;28;20070;-59
2023/09/27 01:35:44;;;;;;;29.27;23.90;;;14.00;99.90;;;;;;5058692;28;20032;-58
2023/09/27 01:38:11;;;;;;;27.30;24.13;;;14.10;99.90;;;;;;5054542;28;21335;-55
2023/09/27 01:40:44;;;;;;;28.60;25.67;;;14.10;99.90;;;;;;5054670;28;20052;-59
2023/09/27 01:43:11;;;;;;;28.70;25.45;;;14.10;99.90;;;;;;5057730;28;20496;-57
2023/09/27 01:45:37;;;;;;;22.98;20.55;;;14.10;99.90;;;;;;5055340;28;20037;-59
2023/09/27 01:48:04;;;;;;;;;;;14.20;99.90;;;;;;5053996;28;20033;-59
2023/09/27 01:50:33;;;;;;;20.67;18.75;;;14.10;99.90;;;;;;5057733;28;20349;-55
2023/09/27 01:52:59;;;;;;;23.88;21.30;;;14.10;99.90;;;;;;5057758;28;20044;-58
2023/09/27 01:55:25;;;;;;;21.38;19.20;;;14.00;99.90;;;;;;5057822;28;20037;-60
2023/09/27 01:57:51;;;;;;;25.73;22.38;;;14.00;99.90;;;;;;5052739;28;20072;-59
2023/09/27 02:00:18;;;;;;;22.83;20.60;;;13.90;99.90;;;;;;5057152;28;20045;-59
2023/09/27 02:03:04;;;;;;;19.35;17.33;;;13.90;99.90;;;;;;5056528;28;20174;-60
2023/09/27 02:05:30;;;;;;;17.52;15.57;;;13.70;99.90;;;;;;5045471;28;20045;-58
2023/09/27 02:07:56;;;;;;;17.70;15.90;;;13.70;99.90;;;;;;5050420;28;20503;-58
2023/09/27 02:10:23;;;;;;;19.45;17.40;;;13.60;99.90;;;;;;5051491;28;20075;-59
2023/09/27 02:12:48;;;;;;;;;;;13.60;99.90;;;;;;5050381;28;20029;-58
2023/09/27 02:15:15;;;;;;;26.65;23.95;;;13.50;99.90;;;;;;5054664;28;19917;-59
2023/09/27 02:17:42;;;;;;;27.10;23.88;;;13.60;99.90;;;;;;5051050;28;20041;-56
2023/09/27 02:20:10;;;;;;;27.48;24.33;;;13.60;99.90;;;;;;5051540;28;20512;-58
2023/09/27 02:22:37;;;;;;;31.67;26.88;;;13.70;99.90;;;;;;5052987;28;20037;-59
2023/09/27 02:25:05;;;;;;;26.83;21.58;;;13.70;99.90;;;;;;5053534;28;20037;-58
2023/09/27 02:27:31;;;;;;;25.63;20.10;;;13.70;99.90;;;;;;5055071;28;20501;-57
2023/09/27 02:29:56;;;;;;;29.15;26.13;;;13.70;99.90;;;;;;5054508;28;20518;-60
2023/09/27 02:32:22;;;;;;;26.38;23.67;;;13.70;99.90;;;;;;5051680;28;20217;-58
2023/09/27 02:34:48;;;;;;;24.02;21.52;;;13.70;99.90;;;;;;5056047;28;20032;-58
2023/09/27 02:37:15;;;;;;;20.25;16.90;;;13.70;99.90;;;;;;5056969;28;20044;-58
2023/09/27 02:39:42;;;;;;;17.48;15.73;;;13.70;99.90;;;;;;5053536;28;20040;-56
2023/09/27 02:42:10;;;;;;;19.55;17.52;;;13.60;99.90;;;;;;5055703;28;20551;-59
2023/09/27 02:44:36;;;;;;;21.88;19.42;;;13.60;99.90;;;;;;5050939;28;20029;-59
2023/09/27 02:47:02;;;;;;;19.17;17.17;;;13.60;99.90;;;;;;5050000;28;20033;-58
2023/09/27 02:49:28;;;;;;;18.13;16.13;;;13.50;99.90;;;;;;5048680;28;20080;-59
2023/09/27 02:51:55;;;;;;;17.42;15.63;;;13.50;99.90;;;;;;5050086;28;20036;-58
2023/09/27 02:54:21;;;;;;;;;;;13.50;99.90;;;;;;5052881;28;20122;-57
2023/09/27 02:56:47;;;;;;;23.85;19.15;;;13.40;99.90;;;;;;5052187;28;20378;-59
2023/09/27 02:59:13;;;;;;;22.90;18.65;;;13.40;99.90;;;;;;5051608;28;20033;-55
2023/09/27 03:01:40;;;;;;;21.90;19.40;;;13.30;99.90;;;;;;5051589;28;20048;-58
2023/09/27 03:04:10;;;;;;;23.40;20.73;;;13.20;99.90;;;;;;5056073;28;20071;-53
2023/09/27 03:06:37;;;;;;;23.90;20.17;;;13.30;99.90;;;;;;5059563;28;20030;-56
2023/09/27 03:09:06;;;;;;;25.52;22.02;;;13.20;99.90;;;;;;5054351;28;20040;-55
2023/09/27 03:11:33;;;;;;;22.73;20.52;;;13.20;99.90;;;;;;5056205;28;20553;-55
2023/09/27 03:13:59;;;;;;;25.02;22.35;;;13.20;99.90;;;;;;5053483;28;20044;-54
2023/09/27 03:16:25;;;;;;;24.00;21.55;;;13.20;99.90;;;;;;5057245;28;20037;-56
2023/09/27 03:18:51;;;;;;;18.95;17.15;;;13.20;99.90;;;;;;5056405;28;20033;-52
2023/09/27 03:21:19;;;;;;;23.75;20.00;;;13.20;99.90;;;;;;5060745;28;20040;-56
2023/09/27 03:23:44;;;;;;;24.25;21.85;;;13.10;99.90;;;;;;5060670;28;20039;-57
2023/09/27 03:26:10;;;;;;;23.63;21.08;;;13.10;99.90;;;;;;5057497;28;20037;-60
2023/09/27 03:28:36;;;;;;;24.38;22.08;;;13.10;99.90;;;;;;5060428;28;20032;-59
2023/09/27 03:31:02;;;;;;;24.63;22.23;;;13.10;99.90;;;;;;5053939;28;20116;-58
2023/09/27 03:33:27;;;;;;;27.33;24.50;;;13.10;99.90;;;;;;5048998;28;20388;-58
2023/09/27 03:35:54;;;;;;;29.00;24.52;;;13.10;99.90;;;;;;5053854;28;20033;-58
2023/09/27 03:38:19;;;;;;;29.00;23.63;;;13.10;99.90;;;;;;5054225;28;20376;-57
2023/09/27 03:40:45;;;;;;;23.35;20.88;;;13.10;99.90;;;;;;5056962;28;20089;-58
2023/09/27 03:43:11;;;;;;;26.25;23.38;;;13.10;99.90;;;;;;5056972;28;20434;-59
2023/09/27 03:45:36;;;;;;;26.95;24.20;;;13.10;99.90;;;;;;5056704;28;20399;-59
2023/09/27 03:48:03;;;;;;;26.45;23.60;;;13.00;99.90;;;;;;5058099;28;20100;-59
2023/09/27 03:50:29;;;;;;;;;;;13.10;99.90;;;;;;5058001;28;20056;-58
2023/09/27 03:52:58;;;;;;;26.50;23.75;;;13.10;99.90;;;;;;5055189;28;20372;-59
2023/09/27 03:55:25;;;;;;;25.15;22.58;;;13.10;99.90;;;;;;5059927;28;20558;-57
2023/09/27 03:57:51;;;;;;;;;;;13.10;99.90;;;;;;5058530;28;20056;-59
2023/09/27 04:00:17;;;;;;;25.47;22.77;;;13.10;99.90;;;;;;5060057;28;20602;-58
2023/09/27 04:02:44;;;;;;;27.55;24.67;;;13.00;99.90;;;;;;5055915;28;20316;-58
2023/09/27 04:05:11;;;;;;;30.35;27.08;;;13.00;99.90;;;;;;5061714;28;20036;-59
2023/09/27 04:07:36;;;;;;;30.52;27.35;;;12.90;99.90;;;;;;5061346;28;20041;-58
2023/09/27 04:10:08;;;;;;;30.30;27.08;;;12.90;99.90;;;;;;5060319;28;20384;-59
2023/09/27 04:12:37;;;;;;;31.45;28.15;;;12.90;99.90;;;;;;5053413;28;20037;-59
2023/09/27 04:15:06;;;;;;;25.65;23.05;;;12.90;99.90;;;;;;5052919;28;20088;-59
2023/09/27 04:17:32;;;;;;;36.55;32.55;;;13.00;99.90;;;;;;5053457;28;20045;-59
2023/09/27 04:19:58;;;;;;;35.05;30.67;;;13.00;99.90;;;;;;5054634;28;20051;-58
2023/09/27 04:22:24;;;;;;;34.55;30.45;;;13.00;99.90;;;;;;5055507;28;20036;-59
2023/09/27 04:24:50;;;;;;;29.45;26.13;;;13.00;99.90;;;;;;5055018;28;20041;-59
2023/09/27 04:27:16;;;;;;;34.30;28.52;;;13.10;99.90;;;;;;5056122;28;20179;-59
2023/09/27 04:29:42;;;;;;;22.33;20.13;;;13.10;99.90;;;;;;5055096;28;20040;-57
2023/09/27 04:32:07;;;;;;;20.65;16.83;;;13.00;99.90;;;;;;5056641;28;20040;-59
2023/09/27 04:34:33;;;;;;;23.50;21.10;;;12.90;99.90;;;;;;5051032;28;20049;-58
2023/09/27 04:37:00;;;;;;;26.08;23.17;;;12.80;99.90;;;;;;5053144;28;20068;-59
2023/09/27 04:39:30;;;;;;;31.88;27.33;;;12.80;99.90;;;;;;5054025;28;20415;-57
2023/09/27 04:41:56;;;;;;;30.90;27.58;;;12.80;99.90;;;;;;5058629;28;20040;-58
2023/09/27 04:44:21;;;;;;;19.75;17.73;;;12.90;99.90;;;;;;5059525;28;20406;-59
2023/09/27 04:46:47;;;;;;;22.27;18.70;;;12.80;99.90;;;;;;5062616;28;20495;-59
2023/09/27 04:49:13;;;;;;;22.17;19.92;;;12.80;99.90;;;;;;5059648;28;20341;-57
2023/09/27 04:51:39;;;;;;;25.92;22.13;;;12.80;99.90;;;;;;5058856;28;20106;-58
2023/09/27 04:54:05;;;;;;;29.38;22.27;;;12.70;99.90;;;;;;5053581;28;20124;-59
2023/09/27 04:56:30;;;;;;;26.98;24.30;;;12.70;99.90;;;;;;5051196;28;20500;-58
2023/09/27 04:58:58;;;;;;;34.83;31.08;;;12.80;99.90;;;;;;5054006;28;20047;-59
2023/09/27 05:01:25;;;;;;;27.05;24.35;;;12.80;99.90;;;;;;5052334;28;20060;-57
2023/09/27 05:03:50;;;;;;;29.88;26.60;;;12.80;99.90;;;;;;5053164;28;20051;-58
2023/09/27 05:06:16;;;;;;;31.73;28.50;;;12.90;99.90;;;;;;5055594;28;20116;-57
2023/09/27 05:08:42;;;;;;;29.58;26.48;;;12.80;99.90;;;;;;5053043;28;20044;-58
2023/09/27 05:11:07;;;;;;;27.15;24.23;;;12.80;99.90;;;;;;5055089;28;20473;-60
2023/09/27 05:13:33;;;;;;;26.48;23.88;;;12.80;99.90;;;;;;5057441;28;20041;-60
2023/09/27 05:15:59;;;;;;;28.83;25.92;;;12.80;99.90;;;;;;5054757;28;20067;-58
2023/09/27 05:18:24;;;;;;;30.70;27.55;;;12.80;99.90;;;;;;5053542;28;20412;-59
2023/09/27 05:20:50;;;;;;;30.27;27.15;;;12.70;99.90;;;;;;5054610;28;20052;-54
2023/09/27 05:23:16;;;;;;;32.90;29.45;;;12.80;99.90;;;;;;5056764;28;20503;-55
2023/09/27 05:25:41;;;;;;;36.47;32.67;;;12.80;99.90;;;;;;5057435;28;20559;-58
2023/09/27 05:28:07;;;;;;;34.95;31.05;;;12.80;99.90;;;;;;5059298;28;20033;-58
2023/09/27 05:30:33;;;;;;;37.17;32.38;;;12.80;99.90;;;;;;5060108;28;20099;-57
2023/09/27 05:32:59;;;;;;;33.50;29.92;;;12.80;99.90;;;;;;5052354;28;20423;-58
2023/09/27 05:35:24;;;;;;;47.05;30.75;;;12.80;99.90;;;;;;5047517;28;20037;-56
2023/09/27 05:37:50;;;;;;;36.42;30.10;;;12.80;99.90;;;;;;5051205;28;20040;-59
2023/09/27 05:40:16;;;;;;;23.45;21.02;;;12.80;99.90;;;;;;5052376;28;20075;-58
2023/09/27 05:42:42;;;;;;;17.42;15.77;;;12.80;99.90;;;;;;5056357;28;20106;-55
2023/09/27 05:45:11;;;;;;;;;;;12.70;99.90;;;;;;5059865;28;20482;-58
2023/09/27 05:47:39;;;;;;;24.75;22.00;;;12.70;99.90;;;;;;5056401;28;19917;-54
2023/09/27 05:50:08;;;;;;;63.63;40.67;;;12.70;99.90;;;;;;5053779;28;20102;-57
2023/09/27 05:52:36;;;;;;;37.15;33.10;;;12.80;99.90;;;;;;5054442;28;20084;-57
2023/09/27 05:55:05;;;;;;;34.53;30.95;;;12.80;99.90;;;;;;5053598;28;20469;-55
2023/09/27 05:57:32;;;;;;;37.58;30.25;;;12.80;99.90;;;;;;5056091;28;20053;-54
2023/09/27 05:59:58;;;;;;;;;;;12.90;99.90;;;;;;5053726;28;20071;-55
2023/09/27 06:02:30;;;;;;;33.93;28.90;;;12.90;99.90;;;;;;5056481;28;20412;-52
2023/09/27 06:04:57;;;;;;;36.00;30.77;;;13.00;99.90;;;;;;5051008;28;20033;-56
2023/09/27 06:07:23;;;;;;;33.38;29.55;;;13.00;99.90;;;;;;5053838;28;20040;-57
2023/09/27 06:09:48;;;;;;;30.38;27.35;;;13.00;99.90;;;;;;5053475;28;20028;-55
2023/09/27 06:12:14;;;;;;;32.00;28.60;;;13.10;99.90;;;;;;5055721;28;20040;-57
2023/09/27 06:14:43;;;;;;;34.83;30.05;;;13.10;99.90;;;;;;5057741;28;20123;-56
2023/09/27 06:17:10;;;;;;;36.08;32.15;;;13.10;99.90;;;;;;5057582;28;20045;-57
2023/09/27 06:19:36;;;;;;;45.30;36.95;;;13.10;99.90;;;;;;5053764;28;20037;-55
2023/09/27 06:22:04;;;;;;;38.50;34.45;;;13.10;99.90;;;;;;5050439;28;20099;-56
2023/09/27 06:24:30;;;;;;;42.53;36.28;;;13.10;99.90;;;;;;5050864;28;20111;-58
2023/09/27 06:26:56;;;;;;;41.90;36.70;;;13.10;99.90;;;;;;5054157;28;20116;-56
2023/09/27 06:29:21;;;;;;;42.10;37.47;;;13.20;99.90;;;;;;5052305;28;20090;-58
2023/09/27 06:31:51;;;;;;;52.35;39.35;;;13.30;99.90;;;;;;5053206;28;20037;-57
2023/09/27 06:34:17;;;;;;;44.70;38.53;;;13.30;99.90;;;;;;5053297;28;20036;-58
2023/09/27 06:36:48;;;;;;;43.17;38.25;;;13.40;99.90;;;;;;5054880;28;20054;-56
2023/09/27 06:39:15;;;;;;;46.05;39.25;;;13.40;99.90;;;;;;5055440;28;20181;-55
2023/09/27 06:41:45;;;;;;;45.03;38.67;;;13.50;99.90;;;;;;5048306;28;20052;-59
2023/09/27 06:44:12;;;;;;;46.78;40.80;;;13.60;99.90;;;;;;5055025;28;20048;-56
2023/09/27 06:46:38;;;;;;;43.60;38.28;;;13.60;99.90;;;;;;5056402;28;20037;-56
2023/09/27 06:49:04;;;;;;;44.45;38.72;;;13.70;99.90;;;;;;5049861;28;20032;-58
2023/09/27 06:51:31;;;;;;;41.60;36.75;;;13.70;99.90;;;;;;5048646;28;20064;-59
2023/09/27 06:53:57;;;;;;;41.35;31.40;;;13.80;99.90;;;;;;5046461;28;20426;-59
2023/09/27 06:56:23;;;;;;;27.67;24.42;;;13.80;99.90;;;;;;5050323;28;20041;-58
2023/09/27 06:58:49;;;;;;;33.75;27.27;;;13.90;99.90;;;;;;5041818;28;20040;-59
2023/09/27 07:01:15;;;;;;;47.30;36.72;;;13.90;99.90;;;;;;5044602;28;20049;-58
2023/09/27 07:03:41;;;;;;;244.70;52.83;;;14.00;99.90;;;;;;5045679;28;20793;-53
2023/09/27 07:06:07;;;;;;;46.05;40.55;;;14.00;99.90;;;;;;5046061;28;20052;-56
2023/09/27 07:08:33;;;;;;;56.75;39.53;;;14.00;99.90;;;;;;5047734;28;20033;-55
2023/09/27 07:11:05;;;;;;;90.60;43.20;;;14.00;99.90;;;;;;5054852;28;20106;-58
2023/09/27 07:13:32;;;;;;;57.28;40.58;;;14.10;99.90;;;;;;5044856;28;20045;-55
2023/09/27 07:15:59;;;;;;;34.75;30.92;;;14.20;99.90;;;;;;5041987;28;20095;-57
2023/09/27 07:18:25;;;;;;;39.97;30.33;;;14.20;99.90;;;;;;5047849;28;20044;-55
2023/09/27 07:20:51;;;;;;;;;;;14.30;99.90;;;;;;5048562;28;20037;-57
2023/09/27 07:23:17;;;;;;;35.88;32.17;;;14.30;99.90;;;;;;5048567;28;20426;-57
2023/09/27 07:25:44;;;;;;;;;;;14.40;99.90;;;;;;5048710;28;20448;-54
2023/09/27 07:28:10;;;;;;;41.30;34.13;;;14.50;99.90;;;;;;5050713;28;19917;-56
2023/09/27 07:30:37;;;;;;;43.30;34.90;;;14.60;99.90;;;;;;5055515;28;20033;-57
2023/09/27 07:33:08;;;;;;;42.22;35.50;;;14.60;99.90;;;;;;5053762;28;20053;-58
2023/09/27 07:35:35;;;;;;;43.40;37.53;;;14.70;99.90;;;;;;5019789;28;20082;-59
2023/09/27 07:38:01;;;;;;;51.17;39.35;;;14.80;99.90;;;;;;5046274;28;20102;-57
2023/09/27 07:40:27;;;;;;;48.08;39.05;;;14.90;99.90;;;;;;5050045;28;20029;-60
2023/09/27 07:42:53;;;;;;;45.30;40.08;;;14.90;99.90;;;;;;5046052;28;20120;-59
2023/09/27 07:45:22;;;;;;;42.72;38.10;;;14.90;99.90;;;;;;5047244;28;20585;-57
2023/09/27 07:47:50;;;;;;;42.75;36.80;;;15.00;99.90;;;;;;5045374;28;20025;-57
2023/09/27 07:50:19;;;;;;;48.85;39.10;;;15.10;99.90;;;;;;5047211;28;20107;-60
2023/09/27 07:52:46;;;;;;;41.50;37.08;;;15.20;99.90;;;;;;5048854;28;20406;-58
2023/09/27 07:55:14;;;;;;;40.70;35.75;;;15.30;99.90;;;;;;5045262;28;20490;-60
2023/09/27 07:57:43;;;;;;;38.72;33.90;;;15.30;99.90;;;;;;5047261;28;20411;-55
2023/09/27 08:00:10;;;;;;;44.65;37.15;;;15.40;99.90;;;;;;5041623;28;20385;-59
2023/09/27 08:02:38;;;;;;;42.60;36.47;;;15.50;99.90;;;;;;5047927;28;20044;-58
2023/09/27 08:05:09;;;;;;;43.15;38.50;;;15.50;99.90;;;;;;5048802;28;20120;-57
2023/09/27 08:07:38;;;;;;;43.78;36.15;;;15.60;99.90;;;;;;5046783;28;20404;-60
2023/09/27 08:10:05;;;;;;;43.33;38.40;;;15.60;99.90;;;;;;5050365;28;20341;-59
2023/09/27 08:12:32;;;;;;;42.08;34.97;;;15.70;99.90;;;;;;5046487;28;20098;-57
2023/09/27 08:15:03;;;;;;;42.47;37.85;;;15.80;99.90;;;;;;5047689;28;20041;-60
2023/09/27 08:17:30;;;;;;;44.90;38.65;;;15.80;99.90;;;;;;5053560;28;20048;-58
2023/09/27 08:19:56;;;;;;;42.72;38.05;;;15.90;99.90;;;;;;5052787;28;20492;-59
2023/09/27 08:22:21;;;;;;;44.75;39.33;;;15.90;99.90;;;;;;5056526;28;20037;-59
2023/09/27 08:24:47;;;;;;;42.38;37.78;;;16.00;99.90;;;;;;5053875;28;20029;-59
2023/09/27 08:27:13;;;;;;;44.22;38.30;;;16.10;99.90;;;;;;5056960;28;20044;-58
2023/09/27 08:29:38;;;;;;;42.10;36.17;;;16.20;99.90;;;;;;5059604;28;20029;-59
2023/09/27 08:32:08;;;;;;;43.65;38.72;;;16.30;99.90;;;;;;5049948;28;20446;-60
2023/09/27 08:34:34;;;;;;;41.85;37.22;;;16.40;99.90;;;;;;5050192;28;20207;-58
2023/09/27 08:37:00;;;;;;;40.70;36.28;;;16.60;99.90;;;;;;5049486;28;20128;-60
2023/09/27 08:39:30;;;;;;;43.88;37.60;;;16.60;99.90;;;;;;5055951;28;20033;-61
2023/09/27 08:41:58;;;;;;;43.45;38.05;;;16.70;99.90;;;;;;5059316;28;20039;-58
2023/09/27 08:44:24;;;;;;;47.65;40.30;;;16.80;99.90;;;;;;5064330;28;20041;-60
2023/09/27 08:46:51;;;;;;;;;;;16.90;99.90;;;;;;5057369;28;20286;-60
2023/09/27 08:49:17;;;;;;;39.17;35.17;;;17.00;99.90;;;;;;5046905;28;19916;-60
2023/09/27 08:51:44;;;;;;;;;;;17.10;99.90;;;;;;5049605;28;20529;-59
2023/09/27 08:54:12;;;;;;;43.13;38.42;;;17.20;99.90;;;;;;5056044;28;20337;-60
2023/09/27 08:56:37;;;;;;;41.50;34.63;;;17.30;99.90;;;;;;5064564;28;20251;-60
2023/09/27 08:59:04;;;;;;;38.58;34.47;;;17.40;99.90;;;;;;5050821;28;20446;-60
2023/09/27 09:01:33;;;;;;;42.60;36.65;;;17.50;99.90;;;;;;5058409;28;20033;-61
2023/09/27 09:04:00;;;;;;;44.00;36.40;;;17.50;99.90;;;;;;5048235;28;20050;-59
2023/09/27 09:06:28;;;;;;;37.30;33.30;;;17.70;99.90;;;;;;5057876;28;20511;-60
2023/09/27 09:08:53;;;;;;;37.08;33.25;;;17.80;99.90;;;;;;5063315;28;20150;-59
2023/09/27 09:11:22;;;;;;;37.15;32.40;;;17.90;99.90;;;;;;5055542;28;20558;-60
2023/09/27 09:14:04;;;;;;;45.22;32.30;;;18.00;99.90;;;;;;5051980;28;20033;-60
2023/09/27 09:16:44;;;;;;;37.33;33.30;;;18.10;99.90;;;;;;5052081;28;20385;-60
2023/09/27 09:19:24;;;;;;;39.15;33.92;;;18.10;99.90;;;;;;5051401;28;20524;-60
2023/09/27 09:22:11;;;;;;;35.95;32.15;;;18.30;99.90;;;;;;5052625;28;20064;-59
2023/09/27 09:24:41;;;;;;;36.50;31.75;;;18.40;99.90;;;;;;5053842;28;20108;-57
2023/09/27 09:27:14;;;;;;;34.15;30.58;;;18.60;99.90;;;;;;5041519;28;20252;-58
2023/09/27 09:29:45;;;;;;;37.88;31.80;;;18.70;99.90;;;;;;5042903;28;20056;-60
2023/09/27 09:32:11;;;;;;;33.03;29.42;;;18.80;99.90;;;;;;5056958;28;20401;-60
2023/09/27 09:34:40;;;;;;;;;;;19.00;99.90;;;;;;5062521;28;20060;-59
2023/09/27 09:37:26;;;;;;;34.63;31.10;;;19.00;99.90;;;;;;5049330;28;19923;-59
2023/09/27 09:39:53;;;;;;;35.43;31.73;;;19.10;99.90;;;;;;5047554;28;20076;-60
2023/09/27 09:42:35;;;;;;;31.70;28.38;;;19.10;99.90;;;;;;5056495;28;20119;-60
2023/09/27 09:45:06;;;;;;;32.85;29.35;;;19.30;99.90;;;;;;5057737;28;20435;-59
2023/09/27 09:47:36;;;;;;;31.65;28.42;;;19.30;99.90;;;;;;5061929;28;20044;-60
2023/09/27 09:50:16;;;;;;;31.45;28.10;;;19.40;99.90;;;;;;5056625;28;20494;-60
2023/09/27 09:52:50;;;;;;;31.88;28.85;;;19.40;99.90;;;;;;5061214;28;20055;-58
2023/09/27 09:55:19;;;;;;;31.20;27.98;;;19.40;99.90;;;;;;5059996;28;20086;-59
2023/09/27 09:57:46;;;;;;;29.38;26.27;;;19.40;99.90;;;;;;5054387;28;20036;-60
2023/09/27 10:00:18;;;;;;;34.30;29.10;;;19.40;99.90;;;;;;5052684;28;20033;-61
2023/09/27 10:02:49;;;;;;;36.10;28.30;;;19.50;99.90;;;;;;5056563;28;20056;-59
2023/09/27 10:05:21;;;;;;;31.55;28.20;;;19.40;99.90;;;;;;5056381;28;20395;-59
2023/09/27 10:07:48;;;;;;;32.75;28.05;;;19.40;99.90;;;;;;5057751;28;20033;-59
2023/09/27 10:10:19;;;;;;;32.17;28.95;;;19.40;99.90;;;;;;5060707;28;20037;-59
2023/09/27 10:12:47;;;;;;;32.25;28.75;;;19.50;99.90;;;;;;5060937;28;20044;-59
2023/09/27 10:15:17;;;;;;;30.50;27.30;;;19.60;99.90;;;;;;5057093;28;20071;-59
2023/09/27 10:17:43;;;;;;;31.52;27.83;;;19.70;99.90;;;;;;5061813;28;20258;-58
2023/09/27 10:20:14;;;;;;;30.77;27.58;;;19.70;99.90;;;;;;5061336;28;20052;-60
2023/09/27 10:22:44;;;;;;;31.70;27.90;;;19.90;99.90;;;;;;5054371;28;20053;-60
2023/09/27 10:25:31;;;;;;;30.33;26.98;;;20.00;99.90;;;;;;5044993;28;20037;-61
2023/09/27 10:28:04;;;;;;;32.08;27.75;;;20.00;99.90;;;;;;5042808;28;20441;-60
2023/09/27 10:30:41;;;;;;;33.08;29.42;;;20.00;99.90;;;;;;5042036;28;20473;-60
2023/09/27 10:33:16;;;;;;;31.55;28.17;;;20.10;99.90;;;;;;5046762;28;20044;-60
2023/09/27 10:35:47;;;;;;;30.58;27.40;;;20.10;99.90;;;;;;5049805;28;20032;-59
2023/09/27 10:38:13;;;;;;;32.20;28.73;;;20.10;99.90;;;;;;5051017;28;20535;-61
2023/09/27 10:40:46;;;;;;;31.80;27.33;;;20.10;99.90;;;;;;5053533;28;20108;-59
2023/09/27 10:43:38;;;;;;;32.55;29.25;;;20.10;99.90;;;;;;5049068;28;20041;-60
2023/09/27 10:46:04;;;;;;;31.40;27.45;;;20.20;99.90;;;;;;5046227;28;20076;-60
2023/09/27 10:48:31;;;;;;;31.38;28.08;;;20.30;99.90;;;;;;5043201;28;20029;-61
2023/09/27 10:50:57;;;;;;;29.10;26.05;;;20.30;99.90;;;;;;5043358;28;20049;-61
2023/09/27 10:53:23;;;;;;;;;;;20.50;99.90;;;;;;5044846;28;20029;-60
2023/09/27 10:55:49;;;;;;;54.33;25.98;;;20.60;99.90;;;;;;5040171;28;20323;-60
2023/09/27 10:58:18;;;;;;;29.20;24.40;;;20.70;99.90;;;;;;5027211;28;20051;-60
2023/09/27 11:01:00;;;;;;;25.02;22.23;;;20.70;99.90;;;;;;5051442;28;20076;-60
2023/09/27 11:03:29;;;;;;;25.92;21.60;;;20.80;99.90;;;;;;5051718;28;20025;-61
2023/09/27 11:06:11;;;;;;;26.40;23.52;;;20.80;99.90;;;;;;5035567;28;20040;-61
2023/09/27 11:08:36;;;;;;;28.58;22.80;;;20.80;99.90;;;;;;5055106;28;20518;-60
2023/09/27 11:11:05;;;;;;;;;;;20.80;99.90;;;;;;5056792;28;20041;-61
2023/09/27 11:13:32;;;;;;;23.25;21.05;;;20.80;99.90;;;;;;5058961;28;19921;-60
2023/09/27 11:16:09;;;;;;;21.95;19.67;;;20.90;99.90;;;;;;5040335;28;20044;-60
2023/09/27 11:18:36;;;;;;;23.88;21.38;;;21.00;99.90;;;;;;5057270;28;20048;-59
2023/09/27 11:21:12;;;;;;;23.58;21.08;;;21.10;99.90;;;;;;5056989;28;20072;-59
2023/09/27 11:23:59;;;;;;;24.48;18.02;;;21.20;99.90;;;;;;5054514;28;20078;-62
2023/09/27 11:26:26;;;;;;;23.27;19.23;;;21.30;99.90;;;;;;5056577;28;20499;-61
2023/09/27 11:29:02;;;;;;;20.10;17.88;;;21.40;99.90;;;;;;5058501;28;20033;-62
2023/09/27 11:31:39;;;;;;;16.65;15.05;;;21.40;99.90;;;;;;5064286;28;20392;-61
2023/09/27 11:34:17;;;;;;;23.95;18.02;;;21.40;99.90;;;;;;5055700;28;20049;-61
2023/09/27 11:36:44;;;;;;;20.55;18.52;;;21.40;99.90;;;;;;5058901;28;20048;-62
2023/09/27 11:39:10;;;;;;;24.38;19.30;;;21.30;99.90;;;;;;5055216;28;20072;-60
2023/09/27 11:41:37;;;;;;;16.70;14.27;;;21.30;99.90;;;;;;5060144;28;20115;-60
2023/09/27 11:44:19;;;;;;;21.85;16.27;;;21.40;99.90;;;;;;5054424;28;20044;-60
2023/09/27 11:46:47;;;;;;;15.40;13.80;;;21.50;99.90;;;;;;5062171;28;20036;-59
2023/09/27 11:49:12;;;;;;;17.02;14.93;;;21.60;99.90;;;;;;5049138;28;20033;-62
2023/09/27 11:51:38;;;;;;;;;;;21.70;99.90;;;;;;5050106;28;20514;-62
2023/09/27 11:54:05;;;;;;;19.58;14.82;;;21.70;99.90;;;;;;5032630;28;19979;-61
2023/09/27 11:56:31;;;;;;;19.15;14.35;;;21.80;99.90;;;;;;5048677;28;20029;-63
2023/09/27 11:58:57;;;;;;;14.45;12.95;;;21.80;99.90;;;;;;5037680;28;20483;-63
2023/09/27 12:01:23;;;;;;;;;;;21.80;99.90;;;;;;5054740;28;20047;-62
2023/09/27 12:03:49;;;;;;;16.58;12.82;;;21.70;99.90;;;;;;5044025;28;20004;-61
2023/09/27 12:06:14;;;;;;;;;;;21.70;99.90;;;;;;5058433;28;20131;-61
2023/09/27 12:08:40;;;;;;;16.23;13.73;;;21.70;99.90;;;;;;5064254;28;19921;-62
2023/09/27 12:11:06;;;;;;;12.35;10.85;;;21.70;99.90;;;;;;5041008;28;20041;-61
2023/09/27 12:13:32;;;;;;;14.20;10.40;;;21.60;99.90;;;;;;5061876;28;20072;-61
2023/09/27 12:15:58;;;;;;;;;;;21.60;99.90;;;;;;5061671;28;20083;-61
2023/09/27 12:18:23;;;;;;;14.82;12.52;;;21.60;99.90;;;;;;5065302;28;20385;-61
2023/09/27 12:20:49;;;;;;;;;;;21.50;99.90;;;;;;5062089;28;20036;-61
2023/09/27 12:23:15;;;;;;;13.23;10.98;;;21.50;99.90;;;;;;5058690;28;20332;-61
2023/09/27 12:25:41;;;;;;;;;;;21.50;99.90;;;;;;5064436;28;20045;-61
2023/09/27 12:28:08;;;;;;;16.58;9.95;;;21.50;99.90;;;;;;5057228;28;20019;-61
2023/09/27 12:30:33;;;;;;;12.43;11.13;;;21.40;99.90;;;;;;5069889;28;20111;-61
2023/09/27 12:32:59;;;;;;;;;;;21.50;99.90;;;;;;5054528;28;20041;-61
2023/09/27 12:35:24;;;;;;;14.95;11.55;;;21.50;99.90;;;;;;5053877;28;19916;-60